createdAt,value
2022-08-07T00:00:25.401Z,102227.94
2022-08-07T00:02:53.715Z,102226.44
2022-08-07T00:05:20.756Z,102230.38
2022-08-07T00:07:58.228Z,102225.50
2022-08-07T00:10:30.438Z,102220.66
2022-08-07T00:13:03.323Z,102222.53
2022-08-07T00:15:50.875Z,102228.63
2022-08-07T00:18:24.039Z,102227.31
2022-08-07T00:20:57.571Z,102236.94
2022-08-07T00:23:30.097Z,102231.66
2022-08-07T00:26:00.156Z,102226.22
2022-08-07T00:28:34.079Z,102224.72
2022-08-07T00:31:04.432Z,102218.22
2022-08-07T00:33:33.594Z,102223.28
2022-08-07T00:36:00.268Z,102224.53
2022-08-07T00:38:31.166Z,102221.78
2022-08-07T00:40:59.344Z,102221.59
2022-08-07T00:44:01.339Z,102220.88
2022-08-07T00:46:13.150Z,102219.38
2022-08-07T00:48:42.320Z,102222.94
2022-08-07T00:51:10.478Z,102219.38
2022-08-07T00:53:39.084Z,102224.81
2022-08-07T00:56:18.169Z,102222.34
2022-08-07T00:58:47.048Z,102224.72
2022-08-07T01:01:17.608Z,102227.69
2022-08-07T01:03:55.830Z,102227.06
2022-08-07T01:06:25.882Z,102229.13
2022-08-07T01:08:53.836Z,102225.38
2022-08-07T01:12:10.099Z,102229.34
2022-08-07T01:14:10.393Z,102218.59
2022-08-07T01:16:37.670Z,102220.00
2022-08-07T01:19:18.346Z,102228.00
2022-08-07T01:21:53.395Z,102220.66
2022-08-07T01:24:22.810Z,102220.88
2022-08-07T01:26:51.928Z,102223.34
2022-08-07T01:29:20.574Z,102221.81
2022-08-07T01:31:49.645Z,102225.56
2022-08-07T01:34:18.003Z,102221.34
2022-08-07T01:36:52.644Z,102222.19
2022-08-07T01:39:39.684Z,102222.09
2022-08-07T01:42:40.020Z,102220.75
2022-08-07T01:45:02.080Z,102219.72
2022-08-07T01:48:18.623Z,102222.00
2022-08-07T01:50:16.639Z,102221.06
2022-08-07T01:52:54.357Z,102219.16
2022-08-07T01:55:28.346Z,102217.09
2022-08-07T01:58:05.676Z,102215.91
2022-08-07T02:00:38.824Z,102205.28
2022-08-07T02:03:21.926Z,102204.94
2022-08-07T02:06:08.834Z,102199.72
2022-08-07T02:08:54.546Z,102202.19
2022-08-07T02:12:04.029Z,102204.81
2022-08-07T02:14:09.919Z,102205.19
2022-08-07T02:16:42.636Z,102205.94
2022-08-07T02:20:04.768Z,102202.19
2022-08-07T02:22:02.758Z,102206.53
2022-08-07T02:24:30.332Z,102214.06
2022-08-07T02:27:01.425Z,102216.97
2022-08-07T02:29:31.457Z,102215.84
2022-08-07T02:32:00.158Z,102210.75
2022-08-07T02:34:28.406Z,102218.56
2022-08-07T02:36:57.987Z,102215.38
2022-08-07T02:39:43.817Z,102230.03
2022-08-07T02:42:16.417Z,102218.66
2022-08-07T02:44:48.033Z,102212.84
2022-08-07T02:47:23.783Z,102211.50
2022-08-07T02:49:57.568Z,102215.66
2022-08-07T02:53:03.429Z,102215.91
2022-08-07T02:56:02.503Z,102224.47
2022-08-07T02:58:22.400Z,102212.47
2022-08-07T03:00:57.447Z,102215.19
2022-08-07T03:03:29.658Z,102220.81
2022-08-07T03:06:16.393Z,102221.38
2022-08-07T03:08:52.802Z,102229.28
2022-08-07T03:11:20.458Z,102218.56
2022-08-07T03:13:57.680Z,102229.28
2022-08-07T03:16:30.394Z,102230.97
2022-08-07T03:19:01.485Z,102228.59
2022-08-07T03:21:29.147Z,102225.03
2022-08-07T03:24:20.465Z,102221.00
2022-08-07T03:26:58.385Z,102219.31
2022-08-07T03:29:33.795Z,102221.47
2022-08-07T03:32:05.198Z,102213.28
2022-08-07T03:34:39.123Z,102212.63
2022-08-07T03:37:12.643Z,102214.59
2022-08-07T03:39:59.159Z,102222.59
2022-08-07T03:42:27.204Z,102220.72
2022-08-07T03:44:58.001Z,102212.75
2022-08-07T03:47:26.131Z,102215.97
2022-08-07T03:49:57.758Z,102216.16
2022-08-07T03:52:27.722Z,102215.78
2022-08-07T03:54:59.176Z,102220.38
2022-08-07T03:58:34.611Z,102223.47
2022-08-07T04:00:30.642Z,102226.03
2022-08-07T04:03:03.759Z,102223.47
2022-08-07T04:05:40.996Z,102217.66
2022-08-07T04:08:16.055Z,102227.25
2022-08-07T04:10:54.129Z,102228.72
2022-08-07T04:14:14.052Z,102224.97
2022-08-07T04:16:31.358Z,102221.03
2022-08-07T04:19:01.631Z,102227.50
2022-08-07T04:21:33.332Z,102224.97
2022-08-07T04:24:06.070Z,102228.22
2022-08-07T04:26:34.792Z,102233.97
2022-08-07T04:29:03.177Z,102235.47
2022-08-07T04:32:02.702Z,102225.25
2022-08-07T04:34:24.077Z,102235.66
2022-08-07T04:37:00.845Z,102233.78
2022-08-07T04:39:29.292Z,102239.91
2022-08-07T04:42:04.035Z,102238.59
2022-08-07T04:44:30.950Z,102236.25
2022-08-07T04:47:56.787Z,102242.34
2022-08-07T04:50:12.493Z,102233.78
2022-08-07T04:52:51.807Z,102236.31
2022-08-07T04:58:16.316Z,102239.56
2022-08-07T04:59:18.532Z,102248.66
2022-08-07T05:02:08.945Z,102240.88
2022-08-07T05:05:52.042Z,102244.63
2022-08-07T05:08:58.910Z,102247.41
2022-08-07T05:11:58.510Z,102249.41
2022-08-07T05:14:55.986Z,102244.03
2022-08-07T05:17:52.803Z,102243.81
2022-08-07T05:20:10.879Z,102240.06
2022-08-07T05:22:39.507Z,102245.13
2022-08-07T05:25:08.730Z,102246.34
2022-08-07T05:28:16.274Z,102254.09
2022-08-07T05:30:42.517Z,102245.72
2022-08-07T05:33:11.301Z,102246.09
2022-08-07T05:35:42.089Z,102244.97
2022-08-07T05:38:11.227Z,102244.97
2022-08-07T05:40:42.764Z,102235.34
2022-08-07T05:43:18.607Z,102244.56
2022-08-07T05:45:48.103Z,102249.75
2022-08-07T05:48:16.562Z,102247.88
2022-08-07T05:50:44.302Z,102244.66
2022-08-07T05:54:08.714Z,102248.25
2022-08-07T05:56:02.093Z,102248.44
2022-08-07T05:58:37.023Z,102249.28
2022-08-07T06:01:10.760Z,102261.03
2022-08-07T06:03:56.598Z,102255.22
2022-08-07T06:06:29.347Z,102252.28
2022-08-07T06:08:57.655Z,102263.00
2022-08-07T06:11:25.278Z,102261.03
2022-08-07T06:14:13.213Z,102257.38
2022-08-07T06:16:40.667Z,102262.66
2022-08-07T06:19:08.679Z,102266.03
2022-08-07T06:22:16.832Z,102268.84
2022-08-07T06:24:45.476Z,102267.34
2022-08-07T06:27:44.295Z,102271.09
2022-08-07T06:30:31.996Z,102273.16
2022-08-07T06:32:58.170Z,102266.38
2022-08-07T06:35:24.917Z,102263.94
2022-08-07T06:38:08.287Z,102271.91
2022-08-07T06:40:54.261Z,102275.03
2022-08-07T06:43:23.777Z,102274.56
2022-08-07T06:45:50.850Z,102276.25
2022-08-07T06:48:25.009Z,102275.59
2022-08-07T06:50:54.779Z,102279.16
2022-08-07T06:55:27.295Z,102275.94
2022-08-07T06:56:15.036Z,102271.84
2022-08-07T07:00:12.709Z,102270.34
2022-08-07T07:01:44.115Z,102258.56
2022-08-07T07:04:28.140Z,102267.03
2022-08-07T07:07:00.983Z,102267.53
2022-08-07T07:09:31.211Z,102267.25
2022-08-07T07:12:25.620Z,102269.31
2022-08-07T07:15:08.611Z,102262.47
2022-08-07T07:17:52.903Z,102260.78
2022-08-07T07:20:27.577Z,102263.69
2022-08-07T07:24:10.064Z,102261.88
2022-08-07T07:26:32.806Z,102258.50
2022-08-07T07:28:48.389Z,102262.31
2022-08-07T07:31:57.039Z,102253.28
2022-08-07T07:34:31.196Z,102255.84
2022-08-07T07:37:14.584Z,102249.84
2022-08-07T07:39:55.341Z,102257.66
2022-08-07T07:42:32.451Z,102251.03
2022-08-07T07:45:02.327Z,102245.78
2022-08-07T07:47:42.939Z,102243.06
2022-08-07T07:50:34.297Z,102244.75
2022-08-07T07:53:13.731Z,102239.88
2022-08-07T07:55:57.715Z,102237.16
2022-08-07T07:58:40.298Z,102231.06
2022-08-07T08:02:02.707Z,102235.41
2022-08-07T08:04:10.435Z,102231.06
2022-08-07T08:06:52.109Z,102230.09
2022-08-07T08:09:20.763Z,102235.41
2022-08-07T08:12:01.624Z,102236.97
2022-08-07T08:14:36.615Z,102238.41
2022-08-07T08:18:36.868Z,102229.50
2022-08-07T08:20:19.086Z,102221.03
2022-08-07T08:23:08.356Z,102223.94
2022-08-07T08:25:56.448Z,102221.22
2022-08-07T08:28:37.282Z,102220.00
2022-08-07T08:31:14.799Z,102227.13
2022-08-07T08:33:48.972Z,102227.44
2022-08-07T08:36:25.565Z,102220.56
2022-08-07T08:38:57.550Z,102217.19
2022-08-07T08:41:57.618Z,102218.41
2022-08-07T08:44:53.294Z,102216.72
2022-08-07T08:47:57.547Z,102215.97
2022-08-07T08:50:39.108Z,102211.13
2022-08-07T08:53:16.597Z,102210.75
2022-08-07T08:56:02.471Z,102215.28
2022-08-07T08:58:54.463Z,102212.34
2022-08-07T09:01:40.033Z,102208.31
2022-08-07T09:04:26.139Z,102219.22
2022-08-07T09:07:01.516Z,102212.09
2022-08-07T09:10:14.832Z,102212.81
2022-08-07T09:13:14.863Z,102206.63
2022-08-07T09:16:22.310Z,102207.56
2022-08-07T09:19:52.015Z,102199.31
2022-08-07T09:24:32.047Z,102205.31
2022-08-07T09:25:24.619Z,102200.50
2022-08-07T09:28:05.133Z,102202.50
2022-08-07T09:30:37.942Z,102195.63
2022-08-07T09:33:40.893Z,102194.97
2022-08-07T09:36:21.896Z,102185.56
2022-08-07T09:39:52.606Z,102179.44
2022-08-07T09:42:11.952Z,102173.00
2022-08-07T09:47:25.998Z,102178.25
2022-08-07T09:48:29.848Z,102182.38
2022-08-07T09:51:25.988Z,102171.72
2022-08-07T09:54:03.286Z,102170.16
2022-08-07T09:57:14.566Z,102169.59
2022-08-07T10:00:06.511Z,102172.81
2022-08-07T10:02:57.944Z,102168.84
2022-08-07T10:06:17.248Z,102162.22
2022-08-07T10:09:23.584Z,102161.81
2022-08-07T10:12:34.859Z,102155.28
2022-08-07T10:15:30.349Z,102155.13
2022-08-07T10:18:27.108Z,102152.72
2022-08-07T10:22:12.555Z,102151.03
2022-08-07T10:24:26.757Z,102154.53
2022-08-07T10:26:53.702Z,102147.69
2022-08-07T10:29:51.437Z,102141.53
2022-08-07T10:32:52.635Z,102142.84
2022-08-07T10:35:56.280Z,102130.72
2022-08-07T10:38:36.031Z,102130.34
2022-08-07T10:41:51.247Z,102126.38
2022-08-07T10:44:39.933Z,102116.34
2022-08-07T10:47:54.917Z,102109.41
2022-08-07T10:50:25.970Z,102109.28
2022-08-07T10:53:27.459Z,102106.06
2022-08-07T10:56:20.869Z,102101.38
2022-08-07T10:59:38.660Z,102098.50
2022-08-07T11:02:33.116Z,102098.06
2022-08-07T11:05:35.684Z,102090.59
2022-08-07T11:08:41.548Z,102095.00
2022-08-07T11:11:14.244Z,102085.75
2022-08-07T11:14:43.990Z,102081.97
2022-08-07T11:16:54.768Z,102084.75
2022-08-07T11:19:27.216Z,102080.78
2022-08-07T11:22:18.841Z,102071.31
2022-08-07T11:24:59.829Z,102069.78
2022-08-07T11:28:01.376Z,102070.25
2022-08-07T11:30:41.973Z,102069.41
2022-08-07T11:33:58.749Z,102061.47
2022-08-07T11:36:31.827Z,102069.66
2022-08-07T11:39:23.943Z,102061.00
2022-08-07T11:42:05.784Z,102054.28
2022-08-07T11:44:52.127Z,102057.47
2022-08-07T11:47:56.516Z,102055.13
2022-08-07T11:50:57.814Z,102062.03
2022-08-07T11:53:43.368Z,102051.22
2022-08-07T11:56:56.288Z,102049.31
2022-08-07T12:00:11.499Z,102039.94
2022-08-07T12:02:52.625Z,102046.88
2022-08-07T12:05:58.439Z,102038.38
2022-08-07T12:08:44.149Z,102035.59
2022-08-07T12:12:09.171Z,102029.03
2022-08-07T12:15:00.478Z,102033.31
2022-08-07T12:17:58.609Z,102025.72
2022-08-07T12:20:51.162Z,102022.56
2022-08-07T12:24:06.304Z,102033.06
2022-08-07T12:26:29.793Z,102016.50
2022-08-07T12:29:11.309Z,102010.38
2022-08-07T12:32:02.054Z,102009.81
2022-08-07T12:34:34.603Z,102007.72
2022-08-07T12:37:08.474Z,102003.63
2022-08-07T12:39:52.524Z,101997.13
2022-08-07T12:42:27.089Z,101996.66
2022-08-07T12:45:04.481Z,101994.09
2022-08-07T12:47:45.686Z,101996.19
2022-08-07T12:50:34.017Z,101990.25
2022-08-07T12:54:02.652Z,101988.41
2022-08-07T12:56:31.097Z,101984.38
2022-08-07T12:59:00.759Z,101981.38
2022-08-07T13:02:01.393Z,101977.56
2022-08-07T13:05:02.605Z,101971.28
2022-08-07T13:08:33.830Z,101974.28
2022-08-07T13:11:06.164Z,101969.19
2022-08-07T13:13:51.582Z,101969.94
2022-08-07T13:16:36.784Z,101959.50
2022-08-07T13:19:45.798Z,101965.44
2022-08-07T13:22:34.301Z,101952.53
2022-08-07T13:25:23.888Z,101952.56
2022-08-07T13:28:13.078Z,101956.63
2022-08-07T13:30:52.286Z,101952.16
2022-08-07T13:34:31.876Z,101950.59
2022-08-07T13:36:17.428Z,101949.41
2022-08-07T13:39:28.253Z,101944.13
2022-08-07T13:42:00.955Z,101938.41
2022-08-07T13:44:34.317Z,101936.25
2022-08-07T13:47:09.308Z,101929.41
2022-08-07T13:50:33.597Z,101930.00
2022-08-07T13:52:38.063Z,101930.41
2022-08-07T13:55:26.224Z,101923.81
2022-08-07T13:58:27.654Z,101921.66
2022-08-07T14:00:58.047Z,101923.94
2022-08-07T14:04:05.403Z,101922.78
2022-08-07T14:06:17.759Z,101912.47
2022-08-07T14:08:48.793Z,101909.38
2022-08-07T14:11:23.466Z,101908.66
2022-08-07T14:14:02.555Z,101908.19
2022-08-07T14:16:38.054Z,101916.19
2022-08-07T14:19:10.530Z,101912.63
2022-08-07T14:22:03.921Z,101902.78
2022-08-07T14:24:41.593Z,101907.94
2022-08-07T14:27:16.082Z,101900.63
2022-08-07T14:30:11.868Z,101901.59
2022-08-07T14:32:55.292Z,101906.28
2022-08-07T14:35:45.024Z,101898.00
2022-08-07T14:38:26.741Z,101896.78
2022-08-07T14:41:02.263Z,101898.91
2022-08-07T14:43:55.186Z,101893.06
2022-08-07T14:49:57.582Z,101885.78
2022-08-07T14:52:04.591Z,101889.41
2022-08-07T14:54:42.175Z,101885.75
2022-08-07T14:57:19.536Z,101879.53
2022-08-07T15:00:05.191Z,101887.22
2022-08-07T15:02:34.466Z,101876.19
2022-08-07T15:05:03.419Z,101879.19
2022-08-07T15:07:51.333Z,101877.84
2022-08-07T15:13:18.086Z,101881.91
2022-08-07T15:15:53.479Z,101870.44
2022-08-07T15:27:09.928Z,101856.66
2022-08-07T15:32:38.860Z,101858.22
2022-08-07T15:35:14.516Z,101859.16
2022-08-07T15:40:38.439Z,101855.50
2022-08-07T15:43:33.094Z,101854.66
2022-08-07T15:46:31.728Z,101846.91
2022-08-07T15:52:01.688Z,101846.00
2022-08-07T15:54:39.236Z,101843.31
2022-08-07T15:57:28.339Z,101838.50
2022-08-07T15:59:59.532Z,101844.66
2022-08-07T16:02:46.911Z,101844.56
2022-08-07T16:05:17.924Z,101831.84
2022-08-07T16:08:33.706Z,101830.16
2022-08-07T16:11:04.180Z,101824.84
2022-08-07T16:13:58.962Z,101833.31
2022-08-07T16:17:15.112Z,101831.69
2022-08-07T16:20:00.144Z,101824.56
2022-08-07T16:22:55.672Z,101832.69
2022-08-07T16:25:54.717Z,101826.19
2022-08-07T16:30:07.886Z,101827.69
2022-08-07T16:31:51.312Z,101823.50
2022-08-07T16:34:32.840Z,101817.66
2022-08-07T16:38:02.930Z,101834.13
2022-08-07T16:40:28.975Z,101816.00
2022-08-07T16:43:03.429Z,101825.91
2022-08-07T16:46:33.694Z,101817.69
2022-08-07T16:50:28.789Z,101819.34
2022-08-07T16:52:51.991Z,101818.75
2022-08-07T16:55:08.461Z,101819.34
2022-08-07T16:58:03.745Z,101822.06
2022-08-07T17:00:41.416Z,101818.63
2022-08-07T17:03:15.811Z,101815.72
2022-08-07T17:06:34.294Z,101823.94
2022-08-07T17:10:06.884Z,101827.97
2022-08-07T17:12:44.684Z,101831.63
2022-08-07T17:15:16.028Z,101830.19
2022-08-07T17:17:47.361Z,101831.66
2022-08-07T17:20:33.205Z,101820.13
2022-08-07T17:23:14.949Z,101835.97
2022-08-07T17:26:22.577Z,101832.38
2022-08-07T17:29:06.268Z,101831.94
2022-08-07T17:31:44.295Z,101823.53
2022-08-07T17:34:57.255Z,101837.03
2022-08-07T17:38:09.521Z,101833.25
2022-08-07T17:40:54.526Z,101834.94
2022-08-07T17:44:01.500Z,101831.97
2022-08-07T17:46:52.143Z,101832.84
2022-08-07T17:49:24.168Z,101835.81
2022-08-07T17:52:12.663Z,101828.66
2022-08-07T17:54:54.037Z,101833.91
2022-08-07T17:57:59.028Z,101825.50
2022-08-07T18:00:34.656Z,101831.81
2022-08-07T18:04:04.200Z,101834.75
2022-08-07T18:06:36.640Z,101831.19
2022-08-07T18:09:06.300Z,101829.31
2022-08-07T18:12:17.897Z,101827.22
2022-08-07T18:14:54.830Z,101834.56
2022-08-07T18:18:47.687Z,101829.31
2022-08-07T18:21:12.556Z,101825.53
2022-08-07T18:23:41.974Z,101829.94
2022-08-07T18:26:05.431Z,101825.75
2022-08-07T18:30:07.238Z,101825.34
2022-08-07T18:32:09.078Z,101825.56
2022-08-07T18:35:00.966Z,101827.25
2022-08-07T18:38:57.673Z,101832.09
2022-08-07T18:41:03.800Z,101834.00
2022-08-07T18:43:49.182Z,101834.16
2022-08-07T18:46:43.128Z,101835.25
2022-08-07T18:50:19.206Z,101838.84
2022-08-07T18:53:06.055Z,101841.78
2022-08-07T18:55:55.719Z,101838.00
2022-08-07T18:58:34.738Z,101852.06
2022-08-07T19:02:16.023Z,101854.16
2022-08-07T19:04:09.375Z,101853.53
2022-08-07T19:06:53.207Z,101848.91
2022-08-07T19:09:56.352Z,101861.09
2022-08-07T19:12:21.714Z,101859.63
2022-08-07T19:14:55.905Z,101859.66
2022-08-07T19:18:00.961Z,101861.53
2022-08-07T19:21:09.110Z,101859.00
2022-08-07T19:23:58.767Z,101859.22
2022-08-07T19:26:43.451Z,101860.69
2022-08-07T19:31:05.487Z,101866.78
2022-08-07T19:32:27.138Z,101866.78
2022-08-07T19:35:00.623Z,101874.13
2022-08-07T19:37:55.370Z,101868.66
2022-08-07T19:40:18.771Z,101876.22
2022-08-07T19:42:58.638Z,101882.53
2022-08-07T19:46:05.104Z,101875.81
2022-08-07T19:48:18.682Z,101875.38
2022-08-07T19:50:53.591Z,101878.31
2022-08-07T19:54:35.068Z,101880.38
2022-08-07T19:57:51.909Z,101879.75
2022-08-07T19:58:58.543Z,101884.78
2022-08-07T20:01:52.911Z,101887.91
2022-08-07T20:04:31.545Z,101885.81
2022-08-07T20:07:09.036Z,101885.56
2022-08-07T20:10:35.891Z,101886.63
2022-08-07T20:12:35.862Z,101895.00
2022-08-07T20:15:15.564Z,101896.03
2022-08-07T20:17:56.231Z,101893.72
2022-08-07T20:20:31.652Z,101892.94
2022-08-07T20:23:23.154Z,101895.41
2022-08-07T20:25:51.094Z,101901.28
2022-08-07T20:28:29.479Z,101896.66
2022-08-07T20:30:57.159Z,101894.53
2022-08-07T20:33:37.493Z,101899.13
2022-08-07T20:36:08.352Z,101900.19
2022-08-07T20:38:59.675Z,101896.16
2022-08-07T20:41:34.070Z,101897.00
2022-08-07T20:44:10.470Z,101893.13
2022-08-07T20:46:43.746Z,101898.00
2022-08-07T20:49:58.311Z,101899.91
2022-08-07T20:52:07.812Z,101901.78
2022-08-07T20:54:45.701Z,101897.84
2022-08-07T20:57:59.981Z,101902.16
2022-08-07T21:00:44.114Z,101898.59
2022-08-07T21:03:19.156Z,101901.53
2022-08-07T21:05:57.126Z,101900.69
2022-08-07T21:08:36.854Z,101904.50
2022-08-07T21:11:10.956Z,101903.88
2022-08-07T21:14:20.305Z,101909.59
2022-08-07T21:16:36.292Z,101907.91
2022-08-07T21:19:06.359Z,101913.69
2022-08-07T21:21:57.219Z,101904.91
2022-08-07T21:24:42.257Z,101906.97
2022-08-07T21:27:39.998Z,101910.34
2022-08-07T21:30:16.739Z,101914.53
2022-08-07T21:32:55.558Z,101920.63
2022-08-07T21:36:03.985Z,101912.81
2022-08-07T21:38:37.688Z,101913.47
2022-08-07T21:41:38.415Z,101921.66
2022-08-07T21:44:30.880Z,101918.72
2022-08-07T21:47:17.363Z,101922.28
2022-08-07T21:50:01.991Z,101923.78
2022-08-07T21:52:41.916Z,101934.63
2022-08-07T21:55:19.263Z,101936.84
2022-08-07T21:58:06.672Z,101937.00
2022-08-07T22:00:35.400Z,101938.25
2022-08-07T22:03:31.741Z,101936.91
2022-08-07T22:06:29.902Z,101937.19
2022-08-07T22:09:07.859Z,101937.41
2022-08-07T22:12:05.792Z,101943.63
2022-08-07T22:14:36.438Z,101940.75
2022-08-07T22:17:05.008Z,101941.56
2022-08-07T22:20:04.329Z,101944.75
2022-08-07T22:23:08.370Z,101943.91
2022-08-07T22:25:51.163Z,101940.66
2022-08-07T22:28:53.212Z,101936.66
2022-08-07T22:31:56.456Z,101945.78
2022-08-07T22:34:19.844Z,101942.31
2022-08-07T22:37:12.518Z,101946.31
2022-08-07T22:39:57.491Z,101931.25
2022-08-07T22:42:29.470Z,101935.22
2022-08-07T22:45:02.213Z,101931.22
2022-08-07T22:48:31.360Z,101933.00
2022-08-07T22:51:23.599Z,101934.56
2022-08-07T22:54:12.183Z,101931.44
2022-08-07T22:56:45.607Z,101927.25
2022-08-07T22:59:49.806Z,101928.16
2022-08-07T23:02:32.406Z,101932.28
2022-08-07T23:06:08.179Z,101937.81
2022-08-07T23:08:22.627Z,101929.34
2022-08-07T23:11:13.167Z,101931.72
2022-08-07T23:14:10.586Z,101935.84
2022-08-07T23:17:00.825Z,101932.69
2022-08-07T23:20:51.437Z,101926.00
2022-08-07T23:24:06.589Z,101934.81
2022-08-07T23:26:38.256Z,101938.59
2022-08-07T23:29:16.633Z,101937.53
2022-08-07T23:34:22.180Z,101930.41
2022-08-07T23:35:01.121Z,101935.22
2022-08-07T23:38:00.904Z,101933.34
2022-08-07T23:40:41.980Z,101932.69
2022-08-07T23:43:37.926Z,101934.44
2022-08-07T23:46:38.553Z,101933.13
2022-08-07T23:49:22.971Z,101934.81
2022-08-07T23:53:05.707Z,101937.94
2022-08-07T23:55:52.233Z,101944.44
2022-08-07T23:58:34.802Z,101941.06
